Time;durP1;ratioP1;P1;durP2;ratioP2;P2;SDS_P1;SDS_P2;PMS_P1;PMS_P2;Temp;Humidity;BMP_temperature;BMP_pressure;BME280_temperature;BME280_humidity;BME280_pressure;Samples;Min_cycle;Max_cycle;Signal;HPM_P1;HPM_P2
2021/01/15 00:00:13;;;;;;;2.28;1.10;;;3.10;99.90;;;;;;4400089;32;20400;-75
2021/01/15 00:02:38;;;;;;;1.02;1.00;;;3.20;99.90;;;;;;4400726;32;20069;-75
2021/01/15 00:05:04;;;;;;;0.40;0.40;;;3.20;99.90;;;;;;4401810;32;20125;-75
2021/01/15 00:07:30;;;;;;;0.30;0.30;;;3.10;99.90;;;;;;4389820;32;20078;-75
2021/01/15 00:09:56;;;;;;;0.40;0.40;;;3.10;99.90;;;;;;4384832;32;20069;-75
2021/01/15 00:12:22;;;;;;;0.43;0.43;;;3.00;99.90;;;;;;4406945;32;20135;-75
2021/01/15 00:14:47;;;;;;;15.50;0.93;;;3.00;99.90;;;;;;4415307;32;20494;-74
2021/01/15 00:17:13;;;;;;;0.40;0.40;;;3.10;99.90;;;;;;4415584;32;20113;-74
2021/01/15 00:19:38;;;;;;;0.30;0.30;;;3.10;99.90;;;;;;4415942;32;20377;-74
2021/01/15 00:22:04;;;;;;;0.60;0.60;;;3.00;99.90;;;;;;4416834;32;20086;-75
2021/01/15 00:24:29;;;;;;;0.30;0.30;;;3.00;99.90;;;;;;4416246;32;20173;-75
2021/01/15 00:26:55;;;;;;;0.35;0.35;;;3.10;99.90;;;;;;4415620;32;20766;-74
2021/01/15 00:29:20;;;;;;;0.30;0.30;;;3.10;99.90;;;;;;4415738;32;20120;-74
2021/01/15 00:31:46;;;;;;;0.37;0.37;;;3.10;99.90;;;;;;4415641;32;20066;-74
2021/01/15 00:34:14;;;;;;;0.30;0.30;;;3.20;99.90;;;;;;4415495;32;20078;-75
2021/01/15 00:36:42;;;;;;;0.57;0.57;;;3.10;99.90;;;;;;4415922;32;20124;-75
2021/01/15 00:39:09;;;;;;;0.30;0.30;;;3.20;99.90;;;;;;4414748;32;20065;-75
2021/01/15 00:41:36;;;;;;;3.42;0.73;;;3.20;99.90;;;;;;4415432;32;20070;-75
2021/01/15 00:44:03;;;;;;;0.30;0.30;;;3.10;99.90;;;;;;4415112;32;20125;-74
2021/01/15 00:46:31;;;;;;;0.30;0.30;;;3.10;99.90;;;;;;4415190;32;20124;-75
2021/01/15 00:49:02;;;;;;;0.40;0.40;;;3.10;99.90;;;;;;4415015;32;20089;-74
2021/01/15 00:51:28;;;;;;;0.40;0.40;;;3.00;99.90;;;;;;4415102;32;20070;-75
2021/01/15 00:53:53;;;;;;;0.30;0.30;;;3.00;99.90;;;;;;4414343;32;20086;-75
2021/01/15 00:56:19;;;;;;;0.50;0.50;;;3.10;99.90;;;;;;4415684;32;20116;-75
2021/01/15 00:58:46;;;;;;;0.73;0.73;;;3.00;99.90;;;;;;4414927;32;20061;-74
2021/01/15 01:01:14;;;;;;;1.12;0.75;;;3.00;99.90;;;;;;4416016;32;20074;-74
2021/01/15 01:03:39;;;;;;;0.30;0.30;;;3.00;99.90;;;;;;4415904;32;20507;-74
2021/01/15 01:06:09;;;;;;;0.35;0.35;;;3.00;99.90;;;;;;4413199;32;20081;-75
2021/01/15 01:08:35;;;;;;;11.15;0.82;;;3.00;99.90;;;;;;4399313;32;20069;-74
2021/01/15 01:11:00;;;;;;;0.43;0.43;;;3.00;99.90;;;;;;4401437;32;20515;-75
2021/01/15 01:13:26;;;;;;;0.47;0.47;;;3.00;99.90;;;;;;4415991;32;20138;-74
2021/01/15 01:15:51;;;;;;;0.55;0.40;;;3.00;99.90;;;;;;4410733;32;20389;-75
2021/01/15 01:18:17;;;;;;;0.55;0.55;;;2.90;99.90;;;;;;4399580;32;20095;-75
2021/01/15 01:20:42;;;;;;;0.35;0.35;;;3.00;99.90;;;;;;4399314;32;20069;-75
2021/01/15 01:23:08;;;;;;;0.30;0.30;;;3.00;99.90;;;;;;4398958;32;20069;-74
2021/01/15 01:25:33;;;;;;;0.50;0.50;;;2.90;99.90;;;;;;4400149;32;20600;-75
2021/01/15 01:27:58;;;;;;;0.30;0.30;;;2.80;99.90;;;;;;4400516;32;20385;-75
2021/01/15 01:30:24;;;;;;;0.30;0.30;;;2.90;99.90;;;;;;4399659;32;20062;-75
2021/01/15 01:32:49;;;;;;;0.57;0.55;;;2.80;99.90;;;;;;4399917;32;20083;-74
2021/01/15 01:35:15;;;;;;;1.08;0.50;;;2.80;99.90;;;;;;4398856;32;20063;-75
2021/01/15 01:37:40;;;;;;;0.40;0.40;;;2.80;99.90;;;;;;4399312;32;20432;-75
2021/01/15 01:40:06;;;;;;;0.37;0.37;;;2.70;99.90;;;;;;4399569;32;20074;-75
2021/01/15 01:42:32;;;;;;;0.50;0.50;;;2.70;99.90;;;;;;4400363;32;20555;-74
2021/01/15 01:44:57;;;;;;;0.40;0.40;;;2.70;99.90;;;;;;4400433;32;20062;-75
2021/01/15 01:47:23;;;;;;;0.50;0.50;;;2.80;99.90;;;;;;4399440;32;20162;-75
2021/01/15 01:49:48;;;;;;;2.05;0.62;;;2.80;99.90;;;;;;4398721;32;20061;-75
2021/01/15 01:52:14;;;;;;;0.85;0.85;;;2.90;99.90;;;;;;4398963;32;20150;-74
2021/01/15 01:54:41;;;;;;;0.60;0.60;;;2.90;99.90;;;;;;4399429;32;20512;-75
2021/01/15 01:57:07;;;;;;;0.43;0.43;;;2.80;99.90;;;;;;4400320;32;20127;-75
2021/01/15 01:59:35;;;;;;;0.30;0.30;;;2.80;99.90;;;;;;4399777;32;20065;-75
2021/01/15 02:02:00;;;;;;;0.32;0.32;;;2.80;99.90;;;;;;4399107;32;20078;-75
2021/01/15 02:04:26;;;;;;;0.47;0.47;;;2.80;99.90;;;;;;4399483;32;20066;-75
2021/01/15 02:06:51;;;;;;;0.30;0.30;;;2.70;99.90;;;;;;4392496;32;20073;-75
2021/01/15 02:09:24;;;;;;;0.40;0.40;;;2.80;99.90;;;;;;4383756;32;20082;-75
2021/01/15 02:11:56;;;;;;;0.40;0.40;;;2.80;99.90;;;;;;4398496;32;20086;-75
2021/01/15 02:14:42;;;;;;;0.37;0.37;;;2.70;99.90;;;;;;4413887;32;20519;-75
2021/01/15 02:17:13;;;;;;;0.40;0.40;;;2.60;99.90;;;;;;4413818;32;20083;-75
2021/01/15 02:20:02;;;;;;;0.40;0.40;;;2.70;99.90;;;;;;4413728;32;20078;-75
2021/01/15 02:22:44;;;;;;;0.52;0.52;;;2.70;99.90;;;;;;4412790;32;20066;-75
2021/01/15 02:25:38;;;;;;;0.43;0.43;;;2.70;99.90;;;;;;4414147;32;20546;-75
2021/01/15 02:28:34;;;;;;;0.40;0.40;;;2.70;99.90;;;;;;4413355;32;20065;-75
2021/01/15 02:31:30;;;;;;;0.47;0.47;;;2.70;99.90;;;;;;4413239;32;20069;-74
2021/01/15 02:34:34;;;;;;;0.73;0.70;;;2.70;99.90;;;;;;4413205;32;20069;-75
2021/01/15 02:37:24;;;;;;;0.40;0.40;;;2.80;99.90;;;;;;4413824;32;20061;-75
2021/01/15 02:40:16;;;;;;;0.30;0.30;;;2.80;99.90;;;;;;4412607;32;20069;-74
2021/01/15 02:42:42;;;;;;;0.50;0.50;;;2.80;99.90;;;;;;4412859;32;20466;-75
2021/01/15 02:45:10;;;;;;;0.40;0.40;;;2.70;99.90;;;;;;4413779;32;20428;-74
2021/01/15 02:47:54;;;;;;;0.88;0.80;;;2.70;99.90;;;;;;4413411;32;20062;-74
2021/01/15 02:50:22;;;;;;;0.40;0.40;;;2.70;99.90;;;;;;4414536;32;20073;-74
2021/01/15 02:52:48;;;;;;;0.30;0.30;;;2.70;99.90;;;;;;4413591;32;20389;-75
2021/01/15 02:55:14;;;;;;;0.40;0.40;;;2.70;99.90;;;;;;4414255;32;20563;-75
2021/01/15 02:57:40;;;;;;;1.08;0.62;;;2.70;99.90;;;;;;4413633;32;20510;-75
2021/01/15 03:00:09;;;;;;;0.40;0.40;;;2.60;99.90;;;;;;4413561;32;20061;-75
2021/01/15 03:02:46;;;;;;;0.62;0.62;;;2.70;99.90;;;;;;4413584;32;20065;-75
2021/01/15 03:05:20;;;;;;;0.60;0.60;;;2.70;99.90;;;;;;4414092;32;20503;-74
2021/01/15 03:07:47;;;;;;;0.25;0.25;;;2.70;99.90;;;;;;4401032;32;20077;-74
2021/01/15 03:10:13;;;;;;;2.30;0.80;;;2.80;99.90;;;;;;4398434;32;20077;-75
2021/01/15 03:12:42;;;;;;;0.37;0.37;;;2.80;99.90;;;;;;4410894;32;20549;-75
2021/01/15 03:15:10;;;;;;;0.52;0.52;;;2.80;99.90;;;;;;4413271;32;20069;-75
2021/01/15 03:17:42;;;;;;;0.40;0.40;;;2.70;99.90;;;;;;4413412;32;20108;-75
2021/01/15 03:20:09;;;;;;;2.17;1.00;;;2.60;99.90;;;;;;4413110;32;20120;-75
2021/01/15 03:22:36;;;;;;;1.73;0.85;;;2.60;99.90;;;;;;4414177;32;20065;-74
2021/01/15 03:25:02;;;;;;;0.50;0.50;;;2.70;99.90;;;;;;4413896;32;20426;-74
2021/01/15 03:27:42;;;;;;;0.73;0.70;;;2.70;99.90;;;;;;4414489;32;20061;-74
2021/01/15 03:30:08;;;;;;;0.37;0.37;;;2.70;99.90;;;;;;4413445;32;20089;-75
2021/01/15 03:32:34;;;;;;;0.30;0.30;;;2.80;99.90;;;;;;4413658;32;20511;-75
2021/01/15 03:34:59;;;;;;;0.40;0.40;;;2.80;99.90;;;;;;4413864;32;20128;-74
2021/01/15 03:37:25;;;;;;;1.67;1.05;;;2.70;99.90;;;;;;4415500;32;20066;-75
2021/01/15 03:39:50;;;;;;;0.30;0.30;;;2.70;99.90;;;;;;4416779;32;20143;-74
2021/01/15 03:42:15;;;;;;;0.45;0.45;;;2.70;99.90;;;;;;4415759;32;20417;-74
2021/01/15 03:44:41;;;;;;;0.98;0.88;;;2.80;99.90;;;;;;4416014;32;20085;-75
2021/01/15 03:47:06;;;;;;;0.77;0.77;;;2.90;99.90;;;;;;4415724;32;20082;-75
2021/01/15 03:49:32;;;;;;;0.40;0.40;;;2.80;99.90;;;;;;4415279;32;20070;-75
2021/01/15 03:51:57;;;;;;;0.40;0.40;;;2.80;99.90;;;;;;4415868;32;20161;-75
2021/01/15 03:54:23;;;;;;;0.50;0.50;;;2.70;99.90;;;;;;4415416;32;20085;-75
2021/01/15 03:56:49;;;;;;;0.80;0.80;;;2.70;99.90;;;;;;4415675;32;20593;-75
2021/01/15 03:59:15;;;;;;;0.37;0.37;;;2.70;99.90;;;;;;4415587;32;20201;-75
2021/01/15 04:01:41;;;;;;;0.82;0.52;;;2.70;99.90;;;;;;4416126;32;20406;-75
2021/01/15 04:04:06;;;;;;;0.40;0.40;;;2.70;99.90;;;;;;4415629;32;20066;-75
2021/01/15 04:06:33;;;;;;;7.53;0.73;;;2.60;99.90;;;;;;4410935;32;20074;-75
2021/01/15 04:08:58;;;;;;;0.52;0.52;;;2.60;99.90;;;;;;4400058;32;20438;-75
2021/01/15 04:11:24;;;;;;;0.47;0.47;;;2.70;99.90;;;;;;4405069;32;20078;-75
2021/01/15 04:13:49;;;;;;;0.75;0.75;;;2.70;99.90;;;;;;4415589;32;20420;-75
2021/01/15 04:16:16;;;;;;;0.50;0.50;;;2.60;99.90;;;;;;4415972;32;20073;-75
2021/01/15 04:18:43;;;;;;;0.32;0.32;;;2.60;99.90;;;;;;4416320;32;20569;-75
2021/01/15 04:21:09;;;;;;;0.30;0.30;;;2.70;99.90;;;;;;4415067;32;20065;-75
2021/01/15 04:23:35;;;;;;;0.52;0.52;;;2.60;99.90;;;;;;4414926;32;20385;-75
2021/01/15 04:26:01;;;;;;;0.32;0.32;;;2.70;99.90;;;;;;4416224;32;20469;-75
2021/01/15 04:28:27;;;;;;;0.50;0.50;;;2.80;99.90;;;;;;4415612;32;20066;-75
2021/01/15 04:30:52;;;;;;;0.40;0.40;;;2.70;99.90;;;;;;4415686;32;20485;-75
2021/01/15 04:33:18;;;;;;;0.40;0.40;;;2.70;99.90;;;;;;4415118;32;20551;-75
2021/01/15 04:35:43;;;;;;;0.30;0.30;;;2.60;99.90;;;;;;4415147;32;20117;-75
2021/01/15 04:38:10;;;;;;;0.30;0.30;;;2.60;99.90;;;;;;4414794;32;20121;-75
2021/01/15 04:40:35;;;;;;;1.58;0.73;;;2.60;99.90;;;;;;4416058;32;20421;-75
2021/01/15 04:43:01;;;;;;;1.02;0.77;;;2.60;99.90;;;;;;4415002;32;20066;-75
2021/01/15 04:45:27;;;;;;;0.77;0.77;;;2.60;99.90;;;;;;4415124;32;20078;-75
2021/01/15 04:47:54;;;;;;;0.57;0.57;;;2.70;99.90;;;;;;4415148;32;20061;-75
2021/01/15 04:50:19;;;;;;;0.50;0.50;;;2.70;99.90;;;;;;4414975;32;20069;-75
2021/01/15 04:52:47;;;;;;;0.40;0.40;;;2.70;99.90;;;;;;4414721;32;20085;-75
2021/01/15 04:55:19;;;;;;;0.40;0.40;;;2.60;99.90;;;;;;4415895;32;20133;-75
2021/01/15 04:57:49;;;;;;;0.50;0.50;;;2.60;99.90;;;;;;4416645;32;20170;-75
2021/01/15 05:00:19;;;;;;;0.50;0.50;;;2.60;99.90;;;;;;4416192;32;20526;-75
2021/01/15 05:02:46;;;;;;;0.45;0.45;;;2.60;99.90;;;;;;4416548;32;20185;-75
2021/01/15 05:05:21;;;;;;;0.40;0.40;;;2.60;99.90;;;;;;4414599;32;20081;-75
2021/01/15 05:08:08;;;;;;;0.30;0.30;;;2.60;99.90;;;;;;4402231;32;20070;-75
2021/01/15 05:10:37;;;;;;;0.75;0.62;;;2.70;99.90;;;;;;4400197;32;20062;-75
2021/01/15 05:13:07;;;;;;;0.57;0.57;;;2.60;99.90;;;;;;4415703;32;20519;-75
2021/01/15 05:15:32;;;;;;;0.93;0.90;;;2.60;99.90;;;;;;4415328;32;20077;-75
2021/01/15 05:17:58;;;;;;;0.30;0.30;;;2.60;99.90;;;;;;4416393;32;20061;-75
2021/01/15 05:20:29;;;;;;;0.30;0.30;;;2.60;99.90;;;;;;4414466;32;20125;-75
2021/01/15 05:22:56;;;;;;;0.40;0.40;;;2.60;99.90;;;;;;4414760;32;20065;-74
2021/01/15 05:25:22;;;;;;;0.40;0.40;;;2.60;99.90;;;;;;4415146;32;20061;-75
2021/01/15 05:27:48;;;;;;;0.30;0.30;;;2.50;99.90;;;;;;4415512;32;20077;-75
2021/01/15 05:30:17;;;;;;;0.30;0.30;;;2.50;99.90;;;;;;4414831;32;20421;-74
2021/01/15 05:32:45;;;;;;;1.77;1.10;;;2.50;99.90;;;;;;4415310;32;20133;-75
2021/01/15 05:35:11;;;;;;;0.60;0.60;;;2.50;99.90;;;;;;4414585;32;20124;-75
2021/01/15 05:37:36;;;;;;;0.40;0.40;;;2.40;99.90;;;;;;4414845;32;20439;-74
2021/01/15 05:40:04;;;;;;;2.17;1.20;;;2.50;99.90;;;;;;4414268;32;20116;-74
2021/01/15 05:42:43;;;;;;;0.93;0.65;;;2.50;99.90;;;;;;4414686;32;20456;-75
2021/01/15 05:45:13;;;;;;;0.62;0.62;;;2.60;99.90;;;;;;4414085;32;20081;-74
2021/01/15 05:47:44;;;;;;;0.62;0.50;;;2.50;99.90;;;;;;4414873;32;20094;-74
2021/01/15 05:50:11;;;;;;;0.45;0.45;;;2.40;99.90;;;;;;4413708;32;20069;-75
2021/01/15 05:52:52;;;;;;;0.30;0.30;;;2.40;99.90;;;;;;4414144;32;20069;-75
2021/01/15 05:55:18;;;;;;;0.47;0.47;;;2.40;99.90;;;;;;4414246;32;20554;-74
2021/01/15 05:57:48;;;;;;;2.28;0.93;;;2.40;99.90;;;;;;4414004;32;20119;-74
2021/01/15 06:00:33;;;;;;;0.30;0.30;;;2.30;99.90;;;;;;4413866;32;20136;-75
2021/01/15 06:02:59;;;;;;;0.40;0.40;;;2.30;99.90;;;;;;4405492;32;20505;-75
2021/01/15 06:05:25;;;;;;;0.37;0.37;;;2.30;99.90;;;;;;4414034;32;20073;-75
2021/01/15 06:07:55;;;;;;;1.05;0.77;;;2.30;99.90;;;;;;4401242;32;20079;-75
2021/01/15 06:10:21;;;;;;;0.50;0.50;;;2.50;99.90;;;;;;4383766;32;20468;-75
2021/01/15 06:12:47;;;;;;;0.40;0.40;;;2.50;99.90;;;;;;4410143;32;20065;-75
2021/01/15 06:15:13;;;;;;;0.40;0.40;;;2.40;99.90;;;;;;4414816;32;20065;-75
2021/01/15 06:17:39;;;;;;;0.30;0.30;;;2.30;99.90;;;;;;4414428;32;20124;-75
2021/01/15 06:20:06;;;;;;;0.50;0.50;;;2.30;99.90;;;;;;4413445;32;20125;-75
2021/01/15 06:22:36;;;;;;;0.40;0.40;;;2.30;99.90;;;;;;4413636;32;20065;-75
2021/01/15 06:25:23;;;;;;;0.60;0.60;;;2.30;99.90;;;;;;4414441;32;20135;-75
2021/01/15 06:27:55;;;;;;;0.37;0.37;;;2.30;99.90;;;;;;4414288;32;20077;-75
2021/01/15 06:30:25;;;;;;;0.30;0.30;;;2.30;99.90;;;;;;4414754;32;20082;-75
2021/01/15 06:32:51;;;;;;;0.88;0.82;;;2.40;99.90;;;;;;4413923;32;20124;-74
2021/01/15 06:35:35;;;;;;;0.40;0.40;;;2.50;99.90;;;;;;4413526;32;20077;-75
2021/01/15 06:38:17;;;;;;;0.50;0.50;;;2.40;99.90;;;;;;4413346;32;20065;-75
2021/01/15 06:40:47;;;;;;;0.40;0.40;;;2.40;99.90;;;;;;4413237;32;20065;-75
2021/01/15 06:43:24;;;;;;;0.62;0.62;;;2.40;99.90;;;;;;4413900;32;20070;-75
2021/01/15 06:45:52;;;;;;;0.32;0.32;;;2.40;99.90;;;;;;4414704;32;20538;-75
2021/01/15 06:48:25;;;;;;;0.85;0.82;;;2.40;99.90;;;;;;4414059;32;20425;-75
2021/01/15 06:50:54;;;;;;;0.57;0.50;;;2.30;99.90;;;;;;4413188;32;20081;-75
2021/01/15 06:53:24;;;;;;;0.50;0.50;;;2.30;99.90;;;;;;4414278;32;20140;-75
2021/01/15 06:55:58;;;;;;;0.40;0.40;;;2.50;99.90;;;;;;4413641;32;20073;-75
2021/01/15 06:58:27;;;;;;;0.40;0.40;;;2.50;99.90;;;;;;4402703;32;20526;-75
2021/01/15 07:01:15;;;;;;;0.50;0.50;;;2.50;99.90;;;;;;4398458;32;20085;-75
2021/01/15 07:04:20;;;;;;;2.00;1.35;;;2.40;99.90;;;;;;4397436;32;20136;-75
2021/01/15 07:06:57;;;;;;;0.50;0.50;;;2.20;99.90;;;;;;4383357;32;20086;-75
2021/01/15 07:09:27;;;;;;;0.50;0.50;;;2.10;99.90;;;;;;4384053;32;20066;-75
2021/01/15 07:11:54;;;;;;;0.50;0.50;;;2.00;99.90;;;;;;4393628;32;20165;-75
2021/01/15 07:14:26;;;;;;;0.50;0.50;;;2.10;99.90;;;;;;4401045;32;20504;-75
2021/01/15 07:16:54;;;;;;;0.57;0.57;;;2.10;99.90;;;;;;4402059;32;20045;-74
2021/01/15 07:19:35;;;;;;;0.30;0.30;;;2.10;99.90;;;;;;4401762;32;20086;-74
2021/01/15 07:22:02;;;;;;;0.40;0.40;;;2.10;99.90;;;;;;4397393;32;20133;-74
2021/01/15 07:24:31;;;;;;;0.43;0.43;;;2.10;99.90;;;;;;4400680;32;20070;-74
2021/01/15 07:26:58;;;;;;;0.30;0.30;;;2.10;99.90;;;;;;4401559;32;20124;-73
2021/01/15 07:29:24;;;;;;;0.40;0.40;;;2.20;99.90;;;;;;4401606;32;20566;-74
2021/01/15 07:31:55;;;;;;;22.80;1.15;;;2.20;99.90;;;;;;4400815;32;20062;-75
2021/01/15 07:34:22;;;;;;;;;;;2.20;99.90;;;;;;4402163;32;20078;-75
2021/01/15 07:36:48;;;;;;;0.40;0.40;;;2.10;99.90;;;;;;4400772;32;20289;-74
2021/01/15 07:39:16;;;;;;;0.50;0.50;;;2.10;99.90;;;;;;4400552;32;20543;-74
2021/01/15 07:41:45;;;;;;;0.30;0.30;;;2.20;99.90;;;;;;4400236;32;20185;-74
2021/01/15 07:44:28;;;;;;;0.55;0.55;;;2.20;99.90;;;;;;4400786;32;20343;-74
2021/01/15 07:46:56;;;;;;;1.12;1.00;;;2.20;99.90;;;;;;4400882;32;20086;-74
2021/01/15 07:49:22;;;;;;;0.57;0.57;;;2.20;99.90;;;;;;4400992;32;20073;-74
2021/01/15 07:52:08;;;;;;;0.62;0.62;;;2.20;99.90;;;;;;4400491;32;20055;-74
2021/01/15 07:54:57;;;;;;;0.50;0.50;;;2.20;99.90;;;;;;4399686;32;20421;-74
2021/01/15 07:57:24;;;;;;;0.45;0.45;;;2.20;99.90;;;;;;4400619;32;20093;-74
2021/01/15 07:59:50;;;;;;;0.50;0.50;;;2.20;99.90;;;;;;4400765;32;20086;-74
2021/01/15 08:02:17;;;;;;;1.08;0.80;;;2.20;99.90;;;;;;4400032;32;20062;-74
2021/01/15 08:04:43;;;;;;;0.60;0.60;;;2.20;99.90;;;;;;4400465;32;20054;-74
2021/01/15 08:07:36;;;;;;;0.40;0.40;;;2.30;99.90;;;;;;4400012;32;20426;-74
2021/01/15 08:10:02;;;;;;;0.60;0.60;;;2.30;99.90;;;;;;4400069;32;20070;-74
2021/01/15 08:12:36;;;;;;;0.52;0.52;;;2.30;99.90;;;;;;4411628;32;20472;-74
2021/01/15 08:15:02;;;;;;;3.08;0.98;;;2.30;99.90;;;;;;4414868;32;20062;-74
2021/01/15 08:17:28;;;;;;;0.57;0.57;;;2.30;99.90;;;;;;4401825;32;20050;-74
2021/01/15 08:19:54;;;;;;;1.27;1.05;;;2.30;99.90;;;;;;4400977;32;20089;-74
2021/01/15 08:22:20;;;;;;;0.60;0.60;;;2.30;99.90;;;;;;4399605;32;20070;-74
2021/01/15 08:24:47;;;;;;;0.30;0.30;;;2.30;99.90;;;;;;4401428;32;20057;-74
2021/01/15 08:27:18;;;;;;;0.40;0.40;;;2.30;99.90;;;;;;4399712;32;20099;-75
2021/01/15 08:29:44;;;;;;;0.40;0.40;;;2.20;99.90;;;;;;4400140;32;20132;-74
2021/01/15 08:32:10;;;;;;;0.30;0.30;;;2.30;99.90;;;;;;4400002;32;20103;-74
2021/01/15 08:34:36;;;;;;;0.40;0.40;;;2.20;99.90;;;;;;4400238;32;20495;-74
2021/01/15 08:37:03;;;;;;;0.40;0.40;;;2.20;99.90;;;;;;4400236;32;20464;-74
2021/01/15 08:39:41;;;;;;;0.73;0.73;;;2.20;99.90;;;;;;4399472;32;20058;-74
2021/01/15 08:42:06;;;;;;;0.40;0.40;;;2.20;99.90;;;;;;4397561;32;100900;-74
2021/01/15 08:44:34;;;;;;;1.00;0.75;;;2.10;99.90;;;;;;4400597;32;20090;-74
2021/01/15 08:47:04;;;;;;;1.37;0.55;;;2.10;99.90;;;;;;4400801;32;20062;-76
2021/01/15 08:49:29;;;;;;;0.40;0.40;;;2.00;99.90;;;;;;4400001;32;20074;-74
2021/01/15 08:51:56;;;;;;;0.40;0.40;;;2.00;99.90;;;;;;4399802;32;20095;-74
2021/01/15 08:54:23;;;;;;;0.73;0.73;;;1.90;99.90;;;;;;4399789;32;20464;-74
2021/01/15 08:56:50;;;;;;;0.43;0.43;;;1.90;99.90;;;;;;4400140;32;20062;-74
2021/01/15 08:59:32;;;;;;;0.45;0.45;;;2.00;99.90;;;;;;4401622;32;20434;-74
2021/01/15 09:01:59;;;;;;;0.40;0.40;;;2.00;99.90;;;;;;4399391;32;20090;-74
2021/01/15 09:04:27;;;;;;;0.30;0.30;;;2.00;99.90;;;;;;4401077;32;20082;-74
2021/01/15 09:06:54;;;;;;;0.40;0.40;;;2.00;99.90;;;;;;4398931;32;20074;-74
2021/01/15 09:09:22;;;;;;;0.65;0.40;;;2.10;99.90;;;;;;4395217;32;20141;-74
2021/01/15 09:11:49;;;;;;;0.40;0.40;;;2.20;99.90;;;;;;4406716;32;20058;-74
2021/01/15 09:14:19;;;;;;;3.37;0.80;;;2.00;99.90;;;;;;4404888;32;20074;-74
2021/01/15 09:16:47;;;;;;;0.90;0.90;;;2.10;99.90;;;;;;4399566;32;20185;-74
2021/01/15 09:19:13;;;;;;;0.50;0.50;;;2.10;99.90;;;;;;4399425;32;20070;-74
2021/01/15 09:21:48;;;;;;;0.40;0.40;;;2.10;99.90;;;;;;4399708;32;20074;-75
2021/01/15 09:24:15;;;;;;;0.40;0.40;;;2.20;99.90;;;;;;4389355;32;20087;-75
2021/01/15 09:26:42;;;;;;;0.55;0.55;;;2.10;99.90;;;;;;4399832;32;20539;-75
2021/01/15 09:29:07;;;;;;;1.42;0.90;;;2.10;99.90;;;;;;4399346;32;20083;-75
2021/01/15 09:31:33;;;;;;;0.40;0.40;;;2.00;99.90;;;;;;4399830;32;20426;-75
2021/01/15 09:33:59;;;;;;;0.55;0.55;;;2.00;99.90;;;;;;4400006;32;20318;-75
2021/01/15 09:36:26;;;;;;;0.30;0.30;;;1.90;99.90;;;;;;4397196;32;20139;-75
2021/01/15 09:38:55;;;;;;;0.50;0.50;;;1.90;99.90;;;;;;4399358;32;20078;-75
2021/01/15 09:41:20;;;;;;;0.30;0.30;;;1.90;99.90;;;;;;4401778;32;20507;-74
2021/01/15 09:43:47;;;;;;;2.17;1.12;;;1.90;99.90;;;;;;4399316;32;20079;-74
2021/01/15 09:46:21;;;;;;;0.40;0.40;;;1.90;99.90;;;;;;4399064;32;20073;-74
2021/01/15 09:48:47;;;;;;;0.50;0.50;;;1.70;99.90;;;;;;4399150;32;20418;-74
2021/01/15 09:51:12;;;;;;;0.30;0.30;;;1.70;99.90;;;;;;4398252;32;20174;-73
2021/01/15 09:53:38;;;;;;;0.32;0.32;;;1.80;99.90;;;;;;4398299;32;20120;-75
2021/01/15 09:56:04;;;;;;;0.40;0.40;;;1.90;99.90;;;;;;4399816;32;20069;-75
2021/01/15 09:58:29;;;;;;;0.30;0.30;;;1.80;99.90;;;;;;4398215;32;20120;-75
2021/01/15 10:00:55;;;;;;;4.55;1.05;;;1.90;99.90;;;;;;4398710;32;20063;-75
2021/01/15 10:03:20;;;;;;;0.37;0.37;;;1.90;99.90;;;;;;4398493;32;20067;-75
2021/01/15 10:05:45;;;;;;;0.45;0.45;;;1.90;99.90;;;;;;4398460;32;20074;-75
2021/01/15 10:08:11;;;;;;;0.30;0.30;;;1.90;99.90;;;;;;4384330;32;20135;-75
2021/01/15 10:10:36;;;;;;;0.50;0.50;;;1.90;99.90;;;;;;4395264;32;20091;-75
2021/01/15 10:13:02;;;;;;;0.40;0.40;;;1.90;99.90;;;;;;4403846;32;20464;-74
2021/01/15 10:15:28;;;;;;;0.60;0.60;;;1.90;99.90;;;;;;4398946;32;20061;-75
2021/01/15 10:17:53;;;;;;;0.55;0.55;;;1.90;99.90;;;;;;4399057;32;20077;-74
2021/01/15 10:20:20;;;;;;;0.32;0.32;;;2.00;99.90;;;;;;4399623;32;20062;-73
2021/01/15 10:22:45;;;;;;;0.73;0.73;;;2.00;99.90;;;;;;4399452;32;20070;-73
2021/01/15 10:25:11;;;;;;;0.40;0.40;;;1.90;99.90;;;;;;4399479;32;20393;-73
2021/01/15 10:27:37;;;;;;;0.62;0.62;;;2.00;99.90;;;;;;4397531;32;20062;-76
2021/01/15 10:30:03;;;;;;;0.30;0.30;;;1.90;99.90;;;;;;4392743;32;20114;-73
2021/01/15 10:32:29;;;;;;;0.40;0.40;;;1.70;99.90;;;;;;4397885;32;20125;-75
2021/01/15 10:34:54;;;;;;;0.45;0.45;;;1.80;99.90;;;;;;4394024;32;20507;-76
2021/01/15 10:37:20;;;;;;;0.65;0.60;;;1.80;99.90;;;;;;4394982;32;20105;-73
2021/01/15 10:39:45;;;;;;;0.30;0.30;;;1.90;99.90;;;;;;4397411;32;20087;-74
2021/01/15 10:42:11;;;;;;;0.40;0.40;;;1.90;99.90;;;;;;4397922;32;20074;-75
2021/01/15 10:44:36;;;;;;;0.62;0.62;;;1.90;99.90;;;;;;4397836;32;20085;-74
2021/01/15 10:47:03;;;;;;;0.30;0.30;;;1.80;99.90;;;;;;4393453;32;20066;-74
2021/01/15 10:49:28;;;;;;;0.30;0.30;;;1.80;99.90;;;;;;4399912;32;20426;-72
2021/01/15 10:51:55;;;;;;;0.73;0.73;;;1.90;99.90;;;;;;4395416;32;20074;-72
2021/01/15 10:54:21;;;;;;;0.30;0.30;;;1.80;99.90;;;;;;4398971;32;20074;-74
2021/01/15 10:56:50;;;;;;;0.95;0.93;;;1.80;99.90;;;;;;4396138;32;20069;-73
2021/01/15 10:59:15;;;;;;;0.40;0.40;;;1.70;99.90;;;;;;4396732;32;20186;-75
2021/01/15 11:01:43;;;;;;;0.70;0.70;;;1.70;99.90;;;;;;4398652;32;20082;-74
2021/01/15 11:04:10;;;;;;;0.50;0.50;;;1.80;99.90;;;;;;4397641;32;20070;-74
2021/01/15 11:06:37;;;;;;;1.27;0.70;;;1.90;99.90;;;;;;4397164;32;20101;-74
2021/01/15 11:09:05;;;;;;;0.45;0.45;;;1.80;99.90;;;;;;4395232;32;20094;-74
2021/01/15 11:11:31;;;;;;;0.62;0.62;;;1.80;99.90;;;;;;4407564;32;20073;-74
2021/01/15 11:13:57;;;;;;;0.40;0.40;;;1.80;99.90;;;;;;4399028;32;20125;-74
2021/01/15 11:16:24;;;;;;;1.40;1.02;;;1.80;99.90;;;;;;4399071;32;20448;-74
2021/01/15 11:18:50;;;;;;;0.95;0.80;;;1.80;99.90;;;;;;4399480;32;20078;-74
2021/01/15 11:21:23;;;;;;;14.70;2.72;;;1.80;99.90;;;;;;4399669;32;20070;-74
2021/01/15 11:23:48;;;;;;;1.48;0.90;;;1.80;99.90;;;;;;4398145;32;20089;-74
2021/01/15 11:26:21;;;;;;;10.23;0.98;;;1.70;99.90;;;;;;4397934;32;20129;-74
2021/01/15 11:28:46;;;;;;;0.30;0.30;;;1.70;99.90;;;;;;4399556;32;20520;-74
2021/01/15 11:31:14;;;;;;;0.52;0.52;;;1.80;99.90;;;;;;4399825;32;20075;-75
2021/01/15 11:33:40;;;;;;;0.40;0.40;;;1.80;99.90;;;;;;4400075;32;20470;-75
2021/01/15 11:36:09;;;;;;;0.65;0.65;;;1.80;99.90;;;;;;4396619;32;20096;-75
2021/01/15 11:38:35;;;;;;;3.20;0.90;;;1.80;99.90;;;;;;4399563;32;20125;-75
2021/01/15 11:41:00;;;;;;;0.40;0.40;;;1.70;99.90;;;;;;4398191;32;20119;-75
2021/01/15 11:43:25;;;;;;;0.32;0.32;;;1.70;99.90;;;;;;4393559;32;20062;-75
2021/01/15 11:45:51;;;;;;;0.45;0.45;;;1.80;99.90;;;;;;4400305;32;20331;-75
2021/01/15 11:48:16;;;;;;;0.30;0.30;;;1.70;99.90;;;;;;4399501;32;20412;-75
2021/01/15 11:50:42;;;;;;;0.40;0.40;;;1.80;99.90;;;;;;4398405;32;20066;-75
2021/01/15 11:53:07;;;;;;;0.50;0.50;;;1.70;99.90;;;;;;4395801;32;20123;-75
2021/01/15 11:55:33;;;;;;;0.75;0.75;;;1.60;99.90;;;;;;4399643;32;20136;-75
2021/01/15 11:57:58;;;;;;;0.30;0.30;;;1.70;99.90;;;;;;4395742;32;20058;-75
2021/01/15 12:00:24;;;;;;;0.40;0.40;;;1.70;99.90;;;;;;4398369;32;20082;-75
2021/01/15 12:02:49;;;;;;;0.30;0.30;;;1.80;99.90;;;;;;4396520;32;20456;-75
2021/01/15 12:05:15;;;;;;;0.40;0.40;;;1.80;99.90;;;;;;4397867;32;20070;-74
2021/01/15 12:07:41;;;;;;;0.35;0.35;;;1.60;99.90;;;;;;4397294;32;20084;-75
2021/01/15 12:10:08;;;;;;;0.40;0.40;;;1.60;99.90;;;;;;4397589;32;20118;-75
2021/01/15 12:12:38;;;;;;;0.55;0.55;;;1.80;99.90;;;;;;4397967;32;20500;-75
2021/01/15 12:15:05;;;;;;;0.30;0.30;;;1.70;99.90;;;;;;4400132;32;20061;-75
2021/01/15 12:17:31;;;;;;;0.65;0.65;;;1.70;99.90;;;;;;4400528;32;20090;-74
2021/01/15 12:19:57;;;;;;;0.60;0.60;;;1.60;99.90;;;;;;4397346;32;20137;-75
2021/01/15 12:22:22;;;;;;;0.40;0.40;;;1.70;99.90;;;;;;4399102;32;20138;-74
2021/01/15 12:24:48;;;;;;;0.60;0.60;;;1.70;99.90;;;;;;4397607;32;20074;-75
2021/01/15 12:27:13;;;;;;;0.40;0.40;;;1.60;99.90;;;;;;4397299;32;20081;-75
2021/01/15 12:29:38;;;;;;;0.40;0.40;;;1.60;99.90;;;;;;4396482;32;20074;-75
2021/01/15 12:32:04;;;;;;;3.00;1.48;;;1.70;99.90;;;;;;4395688;32;20449;-75
2021/01/15 12:34:30;;;;;;;0.40;0.40;;;1.80;99.90;;;;;;4398798;32;20087;-76
2021/01/15 12:36:55;;;;;;;0.50;0.50;;;1.80;99.90;;;;;;4398993;32;20065;-75
2021/01/15 12:39:21;;;;;;;0.70;0.65;;;1.70;99.90;;;;;;4397578;32;20587;-75
2021/01/15 12:41:48;;;;;;;0.50;0.50;;;1.70;99.90;;;;;;4398364;32;20066;-75
2021/01/15 12:44:14;;;;;;;0.32;0.32;;;1.70;99.90;;;;;;4398474;32;20061;-75
2021/01/15 12:46:39;;;;;;;1.00;0.57;;;1.70;99.90;;;;;;4398778;32;20077;-75
2021/01/15 12:49:05;;;;;;;0.50;0.50;;;1.70;99.90;;;;;;4401924;32;20406;-73
2021/01/15 12:51:30;;;;;;;0.73;0.73;;;1.70;99.90;;;;;;4398429;32;20075;-73
2021/01/15 12:53:56;;;;;;;0.40;0.40;;;1.80;99.90;;;;;;4393735;32;20070;-72
2021/01/15 12:56:21;;;;;;;0.40;0.40;;;1.80;99.90;;;;;;4407182;32;20074;-73
2021/01/15 12:58:47;;;;;;;0.50;0.50;;;1.80;99.90;;;;;;4400349;32;20116;-73
2021/01/15 13:01:12;;;;;;;0.30;0.30;;;1.80;99.90;;;;;;4399459;32;20058;-73
2021/01/15 13:03:39;;;;;;;0.93;0.88;;;1.80;99.90;;;;;;4400488;32;20410;-73